Time;durP1;ratioP1;P1;durP2;ratioP2;P2;SDS_P1;SDS_P2;PMS_P1;PMS_P2;Temp;Humidity;BMP_temperature;BMP_pressure;BME280_temperature;BME280_humidity;BME280_pressure;Samples;Min_cycle;Max_cycle;Signal;HPM_P1;HPM_P2
2022/05/11 00:00:21;;;;;;;;;;;;;;;13.88;58.95313;101311.9;;;;-81
2022/05/11 00:05:20;;;;;;;;;;;;;;;13.88;59.00781;101308.5;;;;-82
2022/05/11 00:10:21;;;;;;;;;;;;;;;13.86;59.1416;101302.1;;;;-82
2022/05/11 00:15:27;;;;;;;;;;;;;;;13.86;59.36621;101304.7;;;;-83
2022/05/11 00:18:42;;;;;;;6.3;2.3;;;;;;;;;;;;;-80
2022/05/11 00:20:20;;;;;;;;;;;;;;;13.86;59.60059;101299.8;;;;-80
2022/05/11 00:25:32;;;;;;;;;;;;;;;13.85;59.62207;101295.4;;;;-82
2022/05/11 00:30:29;;;;;;;;;;;;;;;13.86;59.0166;101294.7;;;;-83
2022/05/11 00:34:06;;;;;;;;;;;;;;;13.86;59.06152;101284.4;;;;-82
2022/05/11 00:39:06;;;;;;;;;;;;;;;13.86;59.24121;101279.6;;;;-84
2022/05/11 00:44:09;;;;;;;;;;;;;;;13.86;58.99609;101280.9;;;;-82
2022/05/11 00:54:07;;;;;;;;;;;;;;;13.86;59.21875;101267.9;;;;-82
2022/05/11 00:59:15;;;;;;;;;;;;;;;13.86;58.7373;101262.7;;;;-83
2022/05/11 01:04:07;;;;;;;;;;;;;;;13.85;58.65625;101259.6;;;;-81
2022/05/11 01:09:07;;;;;;;;;;;;;;;13.85;59.49805;101255.2;;;;-82
2022/05/11 01:14:07;;;;;;;;;;;;;;;13.83;59.37207;101245.7;;;;-83
2022/05/11 01:18:45;;;;;;;7.5;2.1;;;;;;;;;;;;;-83
2022/05/11 01:19:07;;;;;;;;;;;;;;;13.83;59.18164;101240.1;;;;-82
2022/05/11 01:24:12;;;;;;;;;;;;;;;13.83;59.5625;101245.6;;;;-83
2022/05/11 01:29:08;;;;;;;;;;;;;;;13.82;59.41602;101236.2;;;;-82
2022/05/11 01:34:07;;;;;;;;;;;;;;;13.82;59.31543;101228.4;;;;-84
2022/05/11 01:39:08;;;;;;;;;;;;;;;13.81;59.10059;101230.4;;;;-80
2022/05/11 01:44:11;;;;;;;;;;;;;;;13.81;59.46094;101236.5;;;;-84
2022/05/11 01:48:47;;;;;;;4.3;1.7;;;;;;;;;;;;;-82
2022/05/11 01:49:06;;;;;;;;;;;;;;;13.8;58.9873;101226.7;;;;-83
2022/05/11 01:54:10;;;;;;;;;;;;;;;13.78;59.59082;101221.3;;;;-84
2022/05/11 01:59:10;;;;;;;;;;;;;;;13.79;59.36719;101218.1;;;;-83
2022/05/11 02:07:49;;;;;;;;;;;;;;;13.77;59.30859;101225.9;;;;-84
2022/05/11 02:09:07;;;;;;;;;;;;;;;13.77;59.9248;101227;;;;-82
2022/05/11 02:14:06;;;;;;;;;;;;;;;13.76;59.59766;101227.2;;;;-81
2022/05/11 02:18:47;;;;;;;8.4;2.1;;;;;;;;;;;;;-82
2022/05/11 02:19:06;;;;;;;;;;;;;;;13.76;59.7998;101223.6;;;;-83
2022/05/11 02:24:07;;;;;;;;;;;;;;;13.77;59.46582;101219.6;;;;-82
2022/05/11 02:29:08;;;;;;;;;;;;;;;13.77;59.56641;101222.5;;;;-84
2022/05/11 02:34:07;;;;;;;;;;;;;;;13.76;59.55469;101211.8;;;;-83
2022/05/11 02:39:06;;;;;;;;;;;;;;;13.76;60.27051;101204.2;;;;-83
2022/05/11 02:44:06;;;;;;;;;;;;;;;13.65;60.24414;101186.4;;;;-83
2022/05/11 02:48:49;;;;;;;8.3;2.2;;;;;;;;;;;;;-84
2022/05/11 02:49:06;;;;;;;;;;;;;;;13.75;60.45996;101205.3;;;;-82
2022/05/11 02:54:07;;;;;;;;;;;;;;;13.75;59.85449;101197.4;;;;-83
2022/05/11 02:59:06;;;;;;;;;;;;;;;13.73;59.84082;101198.1;;;;-83
2022/05/11 03:04:10;;;;;;;;;;;;;;;13.72;59.73926;101192.1;;;;-84
2022/05/11 03:09:06;;;;;;;;;;;;;;;13.71;59.9043;101187.5;;;;-83
2022/05/11 03:14:06;;;;;;;;;;;;;;;13.68;59.80078;101184.1;;;;-83
2022/05/11 03:18:52;;;;;;;7.2;1.9;;;;;;;;;;;;;-83
2022/05/11 03:19:06;;;;;;;;;;;;;;;13.68;59.57715;101177.1;;;;-82
2022/05/11 03:24:06;;;;;;;;;;;;;;;13.66;59.65332;101172.9;;;;-84
2022/05/11 03:29:11;;;;;;;;;;;;;;;13.65;59.62793;101171;;;;-83
2022/05/11 03:39:06;;;;;;;;;;;;;;;13.63;59.66992;101172.2;;;;-83
2022/05/11 03:44:06;;;;;;;;;;;;;;;13.61;59.66797;101158.4;;;;-83
2022/05/11 03:48:52;;;;;;;5.9;2;;;;;;;;;;;;;-84
2022/05/11 03:49:14;;;;;;;;;;;;;;;13.6;59.67676;101149.5;;;;-82
2022/05/11 03:54:08;;;;;;;;;;;;;;;13.57;60.06641;101149.6;;;;-82
2022/05/11 03:59:06;;;;;;;;;;;;;;;13.57;59.53809;101138.3;;;;-83
2022/05/11 04:04:06;;;;;;;;;;;;;;;13.55;60.28711;101138.1;;;;-82
2022/05/11 04:09:09;;;;;;;;;;;;;;;13.55;59.96191;101140;;;;-82
2022/05/11 04:14:08;;;;;;;;;;;;;;;13.55;59.92871;101131;;;;-82
2022/05/11 04:18:53;;;;;;;7;2.2;;;;;;;;;;;;;-83
2022/05/11 04:19:06;;;;;;;;;;;;;;;13.54;59.64648;101128.9;;;;-83
2022/05/11 04:24:06;;;;;;;;;;;;;;;13.54;59.94922;101125.3;;;;-84
2022/05/11 04:29:06;;;;;;;;;;;;;;;13.52;60.33887;101116.6;;;;-84
2022/05/11 04:34:07;;;;;;;;;;;;;;;13.52;60.48535;101125.4;;;;-83
2022/05/11 04:39:12;;;;;;;;;;;;;;;13.52;60.88867;101137;;;;-85
2022/05/11 04:44:06;;;;;;;;;;;;;;;13.55;61.19434;101131.1;;;;-86
2022/05/11 04:49:16;;;;;;;9.9;2.1;;;;;;;;;;;;;-83
2022/05/11 04:49:23;;;;;;;;;;;;;;;13.53;61.2832;101123.8;;;;-82
2022/05/11 04:54:08;;;;;;;;;;;;;;;13.6;61.01172;101131.6;;;;-81
2022/05/11 04:59:17;;;;;;;;;;;;;;;13.63;60.99316;101125.6;;;;-85
2022/05/11 05:04:09;;;;;;;;;;;;;;;13.64;61.22949;101125.6;;;;-83
2022/05/11 05:09:07;;;;;;;;;;;;;;;13.67;61.00977;101128.6;;;;-86
2022/05/11 05:14:08;;;;;;;;;;;;;;;13.7;61.27246;101124.4;;;;-82
2022/05/11 05:18:57;;;;;;;7;2;;;;;;;;;;;;;-84
2022/05/11 05:19:12;;;;;;;;;;;;;;;13.69;61.09082;101124.5;;;;-83
2022/05/11 05:34:06;;;;;;;;;;;;;;;13.82;60.81836;101131.8;;;;-83
2022/05/11 05:39:11;;;;;;;;;;;;;;;13.87;60.94727;101142.8;;;;-84
2022/05/11 05:44:06;;;;;;;;;;;;;;;13.93;60.67578;101141.6;;;;-84
2022/05/11 05:49:07;;;;;;;7;1.6;;;;;;;;;;;;;-84
2022/05/11 05:49:17;;;;;;;;;;;;;;;13.99;60.74121;101141.2;;;;-82
2022/05/11 05:54:06;;;;;;;;;;;;;;;14.09;60.58594;101142.4;;;;-83
2022/05/11 05:59:10;;;;;;;;;;;;;;;14.18;60.65332;101130.3;;;;-82
2022/05/11 06:04:07;;;;;;;;;;;;;;;14.27;60.43066;101140.8;;;;-83
2022/05/11 06:09:14;;;;;;;;;;;;;;;14.35;60.16113;101134.4;;;;-83
2022/05/11 06:14:06;;;;;;;;;;;;;;;14.42;60.39551;101144.7;;;;-83
2022/05/11 06:19:01;;;;;;;6.1;1.5;;;;;;;;;;;;;-84
2022/05/11 06:19:13;;;;;;;;;;;;;;;14.41;60.21484;101133.9;;;;-80
2022/05/11 06:24:09;;;;;;;;;;;;;;;14.56;60.12305;101150.2;;;;-84
2022/05/11 06:29:09;;;;;;;;;;;;;;;14.64;60.12207;101148.9;;;;-82
2022/05/11 06:34:08;;;;;;;;;;;;;;;14.7;60.25488;101141.3;;;;-83
2022/05/11 06:39:09;;;;;;;;;;;;;;;14.8;60.22168;101146.5;;;;-84
2022/05/11 06:44:09;;;;;;;;;;;;;;;14.92;60.35059;101142.8;;;;-83
2022/05/11 06:49:05;;;;;;;8.9;1.7;;;;;;;;;;;;;-84
2022/05/11 06:49:17;;;;;;;;;;;;;;;15.03;60.44434;101136.5;;;;-85
2022/05/11 07:04:09;;;;;;;;;;;;;;;15.39;60.44922;101137.4;;;;-83
2022/05/11 07:09:06;;;;;;;;;;;;;;;15.76;60.25293;101132.4;;;;-81
2022/05/11 07:14:08;;;;;;;;;;;;;;;16.22;59.13184;101130.5;;;;-83
2022/05/11 07:19:05;;;;;;;13.3;2.3;;;;;;;;;;;;;-82
2022/05/11 07:19:21;;;;;;;;;;;;;;;16.51;58.62891;101105;;;;-84
2022/05/11 07:24:10;;;;;;;;;;;;;;;16.87;57.91797;101108.8;;;;-84
2022/05/11 07:29:09;;;;;;;;;;;;;;;17.17;57.25684;101117;;;;-84
2022/05/11 07:34:25;;;;;;;;;;;;;;;17.41;56.42773;101111.4;;;;-80
2022/05/11 07:39:12;;;;;;;;;;;;;;;17.54;55.99023;101115.2;;;;-83
2022/05/11 07:44:06;;;;;;;;;;;;;;;17.51;55.88574;101107.4;;;;-85
2022/05/11 07:49:11;;;;;;;9;1.6;;;;;;;;;;;;;-82
2022/05/11 07:49:21;;;;;;;;;;;;;;;17.54;55.76563;101107.6;;;;-82
2022/05/11 07:54:10;;;;;;;;;;;;;;;17.7;55.5918;101106.4;;;;-82
2022/05/11 08:04:10;;;;;;;;;;;;;;;18.55;54.32422;101125.6;;;;-82
2022/05/11 08:09:07;;;;;;;;;;;;;;;18.91;53.35742;101127;;;;-82
2022/05/11 08:14:09;;;;;;;;;;;;;;;19.15;52.69336;101125.1;;;;-83
2022/05/11 08:19:08;;;;;;;;;;;;;;;19.47;52.08203;101129.2;;;;-84
2022/05/11 08:19:27;;;;;;;10.1;1.9;;;;;;;;;;;;;-84
2022/05/11 08:24:16;;;;;;;;;;;;;;;19.62;51.5293;101124.7;;;;-83
2022/05/11 08:33:18;;;;;;;;;;;;;;;19.56;51.43066;101127.3;;;;-82
2022/05/11 08:34:11;;;;;;;;;;;;;;;19.5;51.48145;101135.7;;;;-83
2022/05/11 08:39:08;;;;;;;;;;;;;;;19.61;51.91504;101127;;;;-83
2022/05/11 08:44:11;;;;;;;;;;;;;;;19.83;51.56445;101125.9;;;;-83
2022/05/11 08:49:07;;;;;;;;;;;;;;;19.94;51.17969;101130.3;;;;-84
2022/05/11 08:49:22;;;;;;;8.7;2.1;;;;;;;;;;;;;-84
2022/05/11 08:54:18;;;;;;;;;;;;;;;20.02;51.0293;101126.5;;;;-83
2022/05/11 08:59:09;;;;;;;;;;;;;;;20.11;50.65039;101130.6;;;;-83
2022/05/11 09:04:11;;;;;;;;;;;;;;;20.02;50.66406;101133;;;;-83
2022/05/11 09:09:08;;;;;;;;;;;;;;;19.97;50.73828;101138.5;;;;-84
2022/05/11 09:14:07;;;;;;;;;;;;;;;19.91;51.00391;101141.3;;;;-84
2022/05/11 09:19:14;;;;;;;;;;;;;;;19.87;50.88574;101137.1;;;;-85
2022/05/11 09:19:28;;;;;;;11.9;2.4;;;;;;;;;;;;;-85
2022/05/11 09:24:17;;;;;;;;;;;;;;;19.75;51.21484;101138.4;;;;-84
2022/05/11 09:29:20;;;;;;;;;;;;;;;19.71;51.3916;101142.4;;;;-83
2022/05/11 09:34:09;;;;;;;;;;;;;;;19.76;51.11328;101135.2;;;;-84
2022/05/11 09:39:14;;;;;;;;;;;;;;;19.88;51.2627;101130.7;;;;-84
2022/05/11 09:44:19;;;;;;;;;;;;;;;20.19;50.99121;101136.9;;;;-84
2022/05/11 09:49:13;;;;;;;;;;;;;;;20.53;50.37793;101146.7;;;;-84
2022/05/11 09:49:35;;;;;;;12.2;2.2;;;;;;;;;;;;;-84
2022/05/11 09:54:12;;;;;;;;;;;;;;;20.83;49.83008;101144.8;;;;-86
2022/05/11 09:59:24;;;;;;;;;;;;;;;21.15;49.05273;101143.1;;;;-82
2022/05/11 10:04:07;;;;;;;;;;;;;;;21.41;48.62402;101140.3;;;;-82
2022/05/11 10:09:07;;;;;;;;;;;;;;;21.55;48.20508;101139.7;;;;-84
2022/05/11 10:21:50;;;;;;;;;;;;;;;21.77;47.83789;101136.8;;;;-84
2022/05/11 10:24:12;;;;;;;;;;;;;;;21.98;47.22949;101125.5;;;;-85
2022/05/11 10:29:12;;;;;;;;;;;;;;;22.02;47.50977;101131.3;;;;-85
2022/05/11 10:34:11;;;;;;;;;;;;;;;22.11;47.3125;101144.3;;;;-86
2022/05/11 10:39:16;;;;;;;;;;;;;;;22.03;47.26953;101130.7;;;;-84
2022/05/11 10:44:23;;;;;;;;;;;;;;;22.05;47.20215;101136.1;;;;-85
2022/05/11 10:49:16;;;;;;;;;;;;;;;22.06;47.18164;101129.3;;;;-84
2022/05/11 10:49:35;;;;;;;10.3;2.8;;;;;;;;;;;;;-84
2022/05/11 10:54:13;;;;;;;;;;;;;;;22.14;47.00586;101123.2;;;;-84
2022/05/11 10:59:28;;;;;;;;;;;;;;;22.33;47.15332;101120;;;;-83
2022/05/11 11:04:16;;;;;;;;;;;;;;;22.59;47.30664;101120.9;;;;-84
2022/05/11 11:09:20;;;;;;;;;;;;;;;22.74;46.47168;101128.1;;;;-83
2022/05/11 11:14:11;;;;;;;;;;;;;;;22.94;46.90625;101125.3;;;;-84
2022/05/11 11:19:08;;;;;;;;;;;;;;;23.29;45.79199;101119.1;;;;-82
2022/05/11 11:19:24;;;;;;;10.5;2.4;;;;;;;;;;;;;-84
2022/05/11 11:24:22;;;;;;;;;;;;;;;23.53;45.64453;101107.5;;;;-83
2022/05/11 11:29:18;;;;;;;;;;;;;;;23.88;45.08008;101109;;;;-83
2022/05/11 11:34:29;;;;;;;;;;;;;;;;;;;;;
2022/05/11 11:39:11;;;;;;;;;;;;;;;23.88;43.32813;101107.2;;;;-85
2022/05/11 11:44:08;;;;;;;;;;;;;;;23.93;42.94141;101106.9;;;;-83
2022/05/11 11:49:18;;;;;;;;;;;;;;;23.94;42.93066;101097.6;;;;-83
2022/05/11 11:49:39;;;;;;;7.3;1.7;;;;;;;;;;;;;-83
2022/05/11 11:54:09;;;;;;;;;;;;;;;24.12;42.69434;101100;;;;-85
2022/05/11 11:59:10;;;;;;;;;;;;;;;24.25;42.03613;101097.4;;;;-86
2022/05/11 12:04:10;;;;;;;;;;;;;;;24.28;42.24707;101084;;;;-82
2022/05/11 12:19:18;;;;;;;;;;;;;;;24.47;41.09766;101093.8;;;;-85
2022/05/11 12:19:34;;;;;;;7.3;1.5;;;;;;;;;;;;;-86
2022/05/11 12:24:27;;;;;;;;;;;;;;;24.52;41.33398;101108.9;;;;-83
2022/05/11 12:34:09;;;;;;;;;;;;;;;24.52;40.35156;101110.5;;;;-85
2022/05/11 12:39:07;;;;;;;;;;;;;;;24.5;40.0957;101111.8;;;;-83
2022/05/11 12:44:12;;;;;;;;;;;;;;;24.33;39.44531;101106.8;;;;-83
2022/05/11 12:49:08;;;;;;;;;;;;;;;24.25;39.05664;101112.5;;;;-84
2022/05/11 12:49:34;;;;;;;7.8;1.5;;;;;;;;;;;;;-83
2022/05/11 12:54:08;;;;;;;;;;;;;;;24.23;39.00879;101109.2;;;;-83
2022/05/11 12:59:15;;;;;;;;;;;;;;;24.18;37.90723;101109.7;;;;-82
2022/05/11 13:04:21;;;;;;;;;;;;;;;24.17;38.50684;101093.7;;;;-84
2022/05/11 13:09:18;;;;;;;;;;;;;;;24.41;37.68262;101090.3;;;;-82
2022/05/11 13:14:08;;;;;;;;;;;;;;;24.38;37.22949;101070.9;;;;-83
2022/05/11 13:19:24;;;;;;;;;;;;;;;24.41;37.5791;101076.2;;;;-84
2022/05/11 13:19:51;;;;;;;;;;;;;;;;;;;;;
2022/05/11 13:24:09;;;;;;;;;;;;;;;24.54;37.62402;101080.2;;;;-83
2022/05/11 13:29:13;;;;;;;;;;;;;;;24.49;37.07617;101058;;;;-85
2022/05/11 13:34:08;;;;;;;;;;;;;;;24.37;37.40234;101059.6;;;;-83
2022/05/11 13:39:21;;;;;;;;;;;;;;;24.29;37.16406;101066;;;;-84
2022/05/11 13:44:13;;;;;;;;;;;;;;;24.21;37.35352;101044;;;;-85
2022/05/11 13:49:17;;;;;;;;;;;;;;;24.15;37.33789;101049.5;;;;-83
2022/05/11 13:49:50;;;;;;;7.3;1.5;;;;;;;;;;;;;-83
2022/05/11 13:54:18;;;;;;;;;;;;;;;24.02;37.66211;101040.7;;;;-82
2022/05/11 13:59:20;;;;;;;;;;;;;;;23.93;37.78125;101029.6;;;;-85
2022/05/11 14:04:12;;;;;;;;;;;;;;;23.85;38.08594;101041.1;;;;-83
2022/05/11 14:09:07;;;;;;;;;;;;;;;23.81;38.31445;101034.7;;;;-83
2022/05/11 14:14:10;;;;;;;;;;;;;;;23.79;38.46289;101041;;;;-81
2022/05/11 14:19:24;;;;;;;;;;;;;;;23.75;38.62012;101036.1;;;;-83
2022/05/11 14:19:50;;;;;;;8.5;1.7;;;;;;;;;;;;;-82
2022/05/11 14:24:06;;;;;;;;;;;;;;;23.67;38.97168;101034.9;;;;-83
2022/05/11 14:29:09;;;;;;;;;;;;;;;23.62;38.95508;101028.7;;;;-80
2022/05/11 14:34:23;;;;;;;;;;;;;;;23.44;39.02051;101041.1;;;;-82
2022/05/11 14:39:10;;;;;;;;;;;;;;;23.1;39.46387;101031.8;;;;-84
2022/05/11 14:44:06;;;;;;;;;;;;;;;22.8;40.03613;101029.2;;;;-83
2022/05/11 14:49:06;;;;;;;;;;;;;;;22.52;40.26367;101025;;;;-81
2022/05/11 14:49:51;;;;;;;7.8;1.8;;;;;;;;;;;;;-82
2022/05/11 14:54:10;;;;;;;;;;;;;;;22.23;40.7666;101025.9;;;;-82
2022/05/11 15:04:09;;;;;;;;;;;;;;;21.67;41.49609;101013.1;;;;-84
2022/05/11 15:09:06;;;;;;;;;;;;;;;21.34;41.95996;101015.9;;;;-82
2022/05/11 15:14:06;;;;;;;;;;;;;;;21.04;42.27539;101014.6;;;;-82
2022/05/11 15:19:24;;;;;;;;;;;;;;;;;;;;;
2022/05/11 15:19:54;;;;;;;5.8;1.6;;;;;;;;;;;;;-83
2022/05/11 15:24:05;;;;;;;;;;;;;;;20.46;43.13574;101018.7;;;;-83
2022/05/11 15:29:06;;;;;;;;;;;;;;;20.25;43.44629;101002.2;;;;-82
2022/05/11 15:34:07;;;;;;;;;;;;;;;20.09;43.75098;100997.1;;;;-84
2022/05/11 15:39:07;;;;;;;;;;;;;;;19.91;44.00781;100990.3;;;;-83
2022/05/11 15:44:07;;;;;;;;;;;;;;;19.68;44.30371;100984.1;;;;-83
2022/05/11 15:49:06;;;;;;;;;;;;;;;19.49;44.64063;100992.2;;;;-85
2022/05/11 15:49:53;;;;;;;7.5;1.8;;;;;;;;;;;;;-82
2022/05/11 15:54:06;;;;;;;;;;;;;;;19.31;44.79199;100998.1;;;;-80
2022/05/11 15:59:06;;;;;;;;;;;;;;;19.18;44.92676;100994.7;;;;-82
2022/05/11 16:04:07;;;;;;;;;;;;;;;19.07;45.06348;100986.5;;;;-82
2022/05/11 16:09:07;;;;;;;;;;;;;;;18.96;45.25879;100986.2;;;;-81
2022/05/11 16:14:12;;;;;;;;;;;;;;;18.87;45.31836;100977.3;;;;-83
2022/05/11 16:19:56;;;;;;;10.7;1.7;;;;;;;;;;;;;-83
2022/05/11 16:24:19;;;;;;;;;;;;;;;18.62;45.72559;100973.8;;;;-84
2022/05/11 16:29:06;;;;;;;;;;;;;;;18.54;45.80859;100984;;;;-84
2022/05/11 16:34:06;;;;;;;;;;;;;;;18.4;45.83984;100965.1;;;;-83
2022/05/11 16:39:07;;;;;;;;;;;;;;;18.25;46.34668;100956;;;;-81
2022/05/11 16:44:11;;;;;;;;;;;;;;;18.13;46.33398;100939.2;;;;-83
2022/05/11 16:49:08;;;;;;;;;;;;;;;18;46.59375;100931.5;;;;-82
2022/05/11 16:49:58;;;;;;;6.6;1.5;;;;;;;;;;;;;-82
2022/05/11 16:54:09;;;;;;;;;;;;;;;17.9;46.84473;100941.5;;;;-83
2022/05/11 16:59:08;;;;;;;;;;;;;;;17.76;46.7041;100936.3;;;;-82
2022/05/11 17:04:08;;;;;;;;;;;;;;;17.64;46.80566;100949.1;;;;-82
2022/05/11 17:09:08;;;;;;;;;;;;;;;17.46;47.27441;100942;;;;-86
2022/05/11 17:14:09;;;;;;;;;;;;;;;17.27;47.92383;100932.1;;;;-82
2022/05/11 17:19:06;;;;;;;;;;;;;;;17.1;48.30273;100942.2;;;;-84
2022/05/11 17:20:00;;;;;;;7;1.5;;;;;;;;;;;;;-83
2022/05/11 17:24:08;;;;;;;;;;;;;;;16.96;48.27539;100933;;;;-83
2022/05/11 17:29:06;;;;;;;;;;;;;;;16.84;48.75;100938.5;;;;-82
2022/05/11 17:34:08;;;;;;;;;;;;;;;16.72;49.68848;100941.8;;;;-82
2022/05/11 17:39:06;;;;;;;;;;;;;;;16.62;50.18652;100920.5;;;;-83
2022/05/11 17:44:07;;;;;;;;;;;;;;;16.5;50.51172;100924.6;;;;-83
2022/05/11 17:49:06;;;;;;;;;;;;;;;16.37;51.0166;100925.7;;;;-85
2022/05/11 17:50:05;;;;;;;8.6;1.4;;;;;;;;;;;;;-85
2022/05/11 17:54:07;;;;;;;;;;;;;;;16.26;51.76172;100912;;;;-84
2022/05/11 17:59:06;;;;;;;;;;;;;;;16.19;52.57813;100909.7;;;;-83
2022/05/11 18:04:10;;;;;;;;;;;;;;;16.13;52.64063;100899.4;;;;-84
2022/05/11 18:09:08;;;;;;;;;;;;;;;16.11;53.34863;100900.3;;;;-85
2022/05/11 18:14:06;;;;;;;;;;;;;;;16.09;54.22754;100893.9;;;;-85
2022/05/11 18:19:06;;;;;;;;;;;;;;;16.08;54.38379;100884.2;;;;-84
2022/05/11 18:20:07;;;;;;;7.7;1.7;;;;;;;;;;;;;-81
2022/05/11 18:24:09;;;;;;;;;;;;;;;16.06;55.3418;100893.7;;;;-83
2022/05/11 18:29:06;;;;;;;;;;;;;;;16.07;55.41016;100892.8;;;;-82
2022/05/11 18:34:11;;;;;;;;;;;;;;;16.04;57.66406;100916.6;;;;-82
2022/05/11 18:39:06;;;;;;;;;;;;;;;15.97;60.25977;100947.3;;;;-82
2022/05/11 18:44:07;;;;;;;;;;;;;;;15.84;60.69141;100928.2;;;;-84
2022/05/11 18:49:06;;;;;;;;;;;;;;;15.7;60.93164;100941.9;;;;-82
2022/05/11 18:50:08;;;;;;;7.2;1.7;;;;;;;;;;;;;-83
2022/05/11 18:54:08;;;;;;;;;;;;;;;15.58;61.625;100932.3;;;;-83
2022/05/11 18:59:06;;;;;;;;;;;;;;;15.48;62.22852;100927.5;;;;-83
2022/05/11 19:04:09;;;;;;;;;;;;;;;15.38;62.51953;100931.5;;;;-84
2022/05/11 19:09:06;;;;;;;;;;;;;;;15.31;63.4082;100934.8;;;;-82
2022/05/11 19:14:08;;;;;;;;;;;;;;;15.24;63.57813;100940.5;;;;-82
2022/05/11 19:19:06;;;;;;;;;;;;;;;15.19;64.22363;100918.1;;;;-82
2022/05/11 19:20:09;;;;;;;6.5;2;;;;;;;;;;;;;-81
2022/05/11 19:24:07;;;;;;;;;;;;;;;15.14;64.94531;100956.1;;;;-81
2022/05/11 19:29:08;;;;;;;;;;;;;;;15.06;65.53027;100950.1;;;;-83
2022/05/11 19:34:09;;;;;;;;;;;;;;;15.01;66.11719;100974.8;;;;-82
2022/05/11 19:39:10;;;;;;;;;;;;;;;14.95;66.49023;100962.2;;;;-83
2022/05/11 19:44:07;;;;;;;;;;;;;;;14.92;66.61816;100963.3;;;;-81
2022/05/11 19:49:06;;;;;;;;;;;;;;;14.89;66.54785;100989.1;;;;-81
2022/05/11 19:50:16;;;;;;;7;1.9;;;;;;;;;;;;;-80
2022/05/11 19:54:07;;;;;;;;;;;;;;;14.81;67.92676;100977.6;;;;-81
2022/05/11 19:59:05;;;;;;;;;;;;;;;14.77;68.05371;100999;;;;-81
2022/05/11 20:04:06;;;;;;;;;;;;;;;14.74;68.02734;100988.8;;;;-80
2022/05/11 20:09:05;;;;;;;;;;;;;;;14.72;68.39453;100992.3;;;;-82
2022/05/11 20:14:08;;;;;;;;;;;;;;;14.66;68.99121;100997.1;;;;-81
2022/05/11 20:19:06;;;;;;;;;;;;;;;14.63;68.90723;101006.8;;;;-81
2022/05/11 20:20:13;;;;;;;8.9;1.9;;;;;;;;;;;;;-79
2022/05/11 20:24:06;;;;;;;;;;;;;;;14.56;69.33398;101013.7;;;;-81
2022/05/11 20:29:06;;;;;;;;;;;;;;;14.54;69.41992;101007.1;;;;-81
2022/05/11 20:39:06;;;;;;;;;;;;;;;14.46;69.41797;101009.8;;;;-82
2022/05/11 20:44:09;;;;;;;;;;;;;;;14.45;69.125;101011.5;;;;-83
2022/05/11 20:49:07;;;;;;;;;;;;;;;14.44;68.59766;101022.1;;;;-83
2022/05/11 20:50:15;;;;;;;9.8;2.3;;;;;;;;;;;;;-82
2022/05/11 20:54:06;;;;;;;;;;;;;;;14.38;68.26367;101026.8;;;;-81
2022/05/11 20:59:07;;;;;;;;;;;;;;;14.35;68.14648;101021.6;;;;-81
2022/05/11 21:04:05;;;;;;;;;;;;;;;14.29;67.52148;101036.6;;;;-80
2022/05/11 21:09:07;;;;;;;;;;;;;;;14.22;67.3877;101061.9;;;;-82
2022/05/11 21:14:05;;;;;;;;;;;;;;;14.14;67.39746;101070.1;;;;-80
2022/05/11 21:19:08;;;;;;;;;;;;;;;14.07;67.09668;101089.7;;;;-80
2022/05/11 21:20:18;;;;;;;11.6;2.3;;;;;;;;;;;;;-82
2022/05/11 21:24:05;;;;;;;;;;;;;;;14.01;66.99707;101098.3;;;;-81
2022/05/11 21:29:05;;;;;;;;;;;;;;;13.93;67.0166;101115.5;;;;-81
2022/05/11 21:34:08;;;;;;;;;;;;;;;13.84;66.78223;101134.8;;;;-81
2022/05/11 21:39:06;;;;;;;;;;;;;;;13.76;66.55566;101143.5;;;;-81
2022/05/11 21:44:05;;;;;;;;;;;;;;;13.67;66.38672;101150.5;;;;-79
2022/05/11 21:49:05;;;;;;;;;;;;;;;13.6;66.36426;101154.9;;;;-81
2022/05/11 21:50:18;;;;;;;6.9;1.5;;;;;;;;;;;;;-80
2022/05/11 21:54:05;;;;;;;;;;;;;;;13.5;66.18164;101164.2;;;;-80
2022/05/11 21:59:09;;;;;;;;;;;;;;;13.41;65.92188;101175;;;;-83
2022/05/11 22:04:06;;;;;;;;;;;;;;;13.32;66.26563;101193;;;;-82
2022/05/11 22:09:05;;;;;;;;;;;;;;;13.24;65.92871;101210.1;;;;-80
2022/05/11 22:14:06;;;;;;;;;;;;;;;13.13;66.11426;101219.6;;;;-81
2022/05/11 22:19:06;;;;;;;;;;;;;;;13.05;65.86719;101226.4;;;;-80
2022/05/11 22:20:19;;;;;;;7.2;1.2;;;;;;;;;;;;;-80
2022/05/11 22:24:06;;;;;;;;;;;;;;;12.95;65.75098;101244.6;;;;-81
2022/05/11 22:29:05;;;;;;;;;;;;;;;12.83;65.72266;101256.1;;;;-80
2022/05/11 22:34:05;;;;;;;;;;;;;;;12.71;65.90527;101259;;;;-80
2022/05/11 22:39:06;;;;;;;;;;;;;;;12.6;65.55469;101274.3;;;;-81
2022/05/11 22:44:05;;;;;;;;;;;;;;;12.51;65.68555;101281.9;;;;-81
2022/05/11 22:49:09;;;;;;;;;;;;;;;12.38;65.43066;101285;;;;-80
2022/05/11 22:50:20;;;;;;;3.9;0.8;;;;;;;;;;;;;-79
2022/05/11 22:54:05;;;;;;;;;;;;;;;12.28;65.61719;101290.9;;;;-81
2022/05/11 22:59:05;;;;;;;;;;;;;;;12.16;65.23242;101298.1;;;;-82
2022/05/11 23:04:05;;;;;;;;;;;;;;;12.06;65.44043;101307.4;;;;-80
2022/05/11 23:09:06;;;;;;;;;;;;;;;11.96;65.12305;101314.7;;;;-79
2022/05/11 23:14:07;;;;;;;;;;;;;;;11.87;65.22266;101324.4;;;;-80
2022/05/11 23:19:08;;;;;;;;;;;;;;;11.76;65.16016;101325.8;;;;-81
2022/05/11 23:20:26;;;;;;;2.7;0.8;;;;;;;;;;;;;-81
2022/05/11 23:24:06;;;;;;;;;;;;;;;11.68;65.10547;101337.6;;;;-82
2022/05/11 23:29:08;;;;;;;;;;;;;;;11.6;64.93652;101338.9;;;;-81
2022/05/11 23:34:05;;;;;;;;;;;;;;;11.52;65.19238;101348.5;;;;-81
2022/05/11 23:39:08;;;;;;;;;;;;;;;11.43;64.8457;101346.1;;;;-82
2022/05/11 23:44:06;;;;;;;;;;;;;;;11.35;64.82227;101357.5;;;;-79
2022/05/11 23:49:05;;;;;;;;;;;;;;;11.28;64.92285;101364.3;;;;-81
2022/05/11 23:50:25;;;;;;;5.4;1.1;;;;;;;;;;;;;-82
2022/05/11 23:54:05;;;;;;;;;;;;;;;11.19;64.79785;101368.5;;;;-81
2022/05/11 23:59:06;;;;;;;;;;;;;;;11.11;64.80957;101370.1;;;;-81
